sensor_id;sensor_type;location;lat;lon;timestamp;P1;durP1;ratioP1;P2;durP2;ratioP2
74243;SDS011;62600;55.732;37.662;2022-10-22T00:01:15;8.15;;;4.55;;
74243;SDS011;62600;55.732;37.662;2022-10-22T00:02:46;5.72;;;3.28;;
74243;SDS011;62600;55.732;37.662;2022-10-22T00:04:17;6.40;;;4.03;;
74243;SDS011;62600;55.732;37.662;2022-10-22T00:05:47;5.35;;;3.65;;
74243;SDS011;62600;55.732;37.662;2022-10-22T00:07:18;5.03;;;3.20;;
74243;SDS011;62600;55.732;37.662;2022-10-22T00:08:50;6.30;;;3.70;;
74243;SDS011;62600;55.732;37.662;2022-10-22T00:10:20;7.07;;;3.33;;
74243;SDS011;62600;55.732;37.662;2022-10-22T00:11:51;6.15;;;3.35;;
74243;SDS011;62600;55.732;37.662;2022-10-22T00:13:21;6.53;;;3.58;;
74243;SDS011;62600;55.732;37.662;2022-10-22T00:14:52;5.05;;;3.55;;
74243;SDS011;62600;55.732;37.662;2022-10-22T00:16:23;6.10;;;3.85;;
74243;SDS011;62600;55.732;37.662;2022-10-22T00:17:53;5.90;;;3.47;;
74243;SDS011;62600;55.732;37.662;2022-10-22T00:19:24;7.82;;;3.85;;
74243;SDS011;62600;55.732;37.662;2022-10-22T00:20:54;4.63;;;3.42;;
74243;SDS011;62600;55.732;37.662;2022-10-22T00:22:25;5.97;;;3.58;;
74243;SDS011;62600;55.732;37.662;2022-10-22T00:23:55;5.25;;;3.10;;
74243;SDS011;62600;55.732;37.662;2022-10-22T00:25:26;4.25;;;2.88;;
74243;SDS011;62600;55.732;37.662;2022-10-22T00:26:57;5.88;;;3.20;;
74243;SDS011;62600;55.732;37.662;2022-10-22T00:28:27;5.65;;;2.90;;
74243;SDS011;62600;55.732;37.662;2022-10-22T00:29:58;4.43;;;2.40;;
74243;SDS011;62600;55.732;37.662;2022-10-22T00:31:28;3.97;;;2.67;;
74243;SDS011;62600;55.732;37.662;2022-10-22T00:32:58;6.60;;;2.22;;
74243;SDS011;62600;55.732;37.662;2022-10-22T00:34:30;3.28;;;2.17;;
74243;SDS011;62600;55.732;37.662;2022-10-22T00:36:01;4.65;;;2.10;;
74243;SDS011;62600;55.732;37.662;2022-10-22T00:37:31;2.95;;;1.98;;
74243;SDS011;62600;55.732;37.662;2022-10-22T00:39:02;3.88;;;2.20;;
74243;SDS011;62600;55.732;37.662;2022-10-22T00:40:32;2.90;;;2.10;;
74243;SDS011;62600;55.732;37.662;2022-10-22T00:42:03;2.83;;;1.80;;
74243;SDS011;62600;55.732;37.662;2022-10-22T00:43:51;3.60;;;1.92;;
74243;SDS011;62600;55.732;37.662;2022-10-22T00:45:24;3.85;;;1.83;;
74243;SDS011;62600;55.732;37.662;2022-10-22T00:46:56;4.95;;;2.00;;
74243;SDS011;62600;55.732;37.662;2022-10-22T00:48:29;5.68;;;2.50;;
74243;SDS011;62600;55.732;37.662;2022-10-22T00:50:03;4.03;;;2.28;;
74243;SDS011;62600;55.732;37.662;2022-10-22T00:51:36;4.22;;;2.38;;
74243;SDS011;62600;55.732;37.662;2022-10-22T00:53:09;3.13;;;1.80;;
74243;SDS011;62600;55.732;37.662;2022-10-22T00:54:45;4.82;;;2.20;;
74243;SDS011;62600;55.732;37.662;2022-10-22T00:56:16;3.05;;;1.80;;
74243;SDS011;62600;55.732;37.662;2022-10-22T00:57:46;4.15;;;2.30;;
74243;SDS011;62600;55.732;37.662;2022-10-22T00:59:17;5.57;;;2.30;;
74243;SDS011;62600;55.732;37.662;2022-10-22T01:00:48;2.97;;;2.15;;
74243;SDS011;62600;55.732;37.662;2022-10-22T01:02:18;4.13;;;2.10;;
74243;SDS011;62600;55.732;37.662;2022-10-22T01:03:49;3.72;;;2.03;;
74243;SDS011;62600;55.732;37.662;2022-10-22T01:05:20;3.30;;;1.92;;
74243;SDS011;62600;55.732;37.662;2022-10-22T01:06:51;3.88;;;2.40;;
74243;SDS011;62600;55.732;37.662;2022-10-22T01:08:26;4.10;;;2.17;;
74243;SDS011;62600;55.732;37.662;2022-10-22T01:13:16;4.32;;;2.35;;
74243;SDS011;62600;55.732;37.662;2022-10-22T01:17:03;4.65;;;2.15;;
74243;SDS011;62600;55.732;37.662;2022-10-22T01:18:53;4.32;;;2.42;;
74243;SDS011;62600;55.732;37.662;2022-10-22T01:24:31;4.45;;;2.63;;
74243;SDS011;62600;55.732;37.662;2022-10-22T01:28:16;5.03;;;2.58;;
74243;SDS011;62600;55.732;37.662;2022-10-22T01:30:11;5.05;;;2.88;;
74243;SDS011;62600;55.732;37.662;2022-10-22T01:31:45;4.68;;;2.90;;
74243;SDS011;62600;55.732;37.662;2022-10-22T01:33:21;6.78;;;3.28;;
74243;SDS011;62600;55.732;37.662;2022-10-22T01:34:55;4.85;;;3.00;;
74243;SDS011;62600;55.732;37.662;2022-10-22T01:36:29;6.28;;;3.20;;
74243;SDS011;62600;55.732;37.662;2022-10-22T01:38:03;5.35;;;3.10;;
74243;SDS011;62600;55.732;37.662;2022-10-22T01:39:37;5.65;;;3.50;;
74243;SDS011;62600;55.732;37.662;2022-10-22T01:41:10;5.80;;;3.42;;
74243;SDS011;62600;55.732;37.662;2022-10-22T01:42:41;6.22;;;3.58;;
74243;SDS011;62600;55.732;37.662;2022-10-22T01:44:22;5.30;;;3.08;;
74243;SDS011;62600;55.732;37.662;2022-10-22T01:46:05;5.45;;;3.53;;
74243;SDS011;62600;55.732;37.662;2022-10-22T01:49:32;7.05;;;4.22;;
74243;SDS011;62600;55.732;37.662;2022-10-22T01:55:17;7.47;;;4.38;;
74243;SDS011;62600;55.732;37.662;2022-10-22T02:00:30;7.22;;;4.28;;
74243;SDS011;62600;55.732;37.662;2022-10-22T02:04:01;8.70;;;5.03;;
74243;SDS011;62600;55.732;37.662;2022-10-22T02:05:44;7.75;;;4.45;;
74243;SDS011;62600;55.732;37.662;2022-10-22T02:07:20;7.15;;;4.75;;
74243;SDS011;62600;55.732;37.662;2022-10-22T02:08:54;7.28;;;4.55;;
74243;SDS011;62600;55.732;37.662;2022-10-22T02:10:28;6.35;;;4.63;;
74243;SDS011;62600;55.732;37.662;2022-10-22T02:12:00;6.20;;;4.05;;
74243;SDS011;62600;55.732;37.662;2022-10-22T02:13:34;7.97;;;4.95;;
74243;SDS011;62600;55.732;37.662;2022-10-22T02:15:08;8.18;;;4.53;;
74243;SDS011;62600;55.732;37.662;2022-10-22T02:16:42;6.10;;;4.15;;
74243;SDS011;62600;55.732;37.662;2022-10-22T02:18:14;7.63;;;4.57;;
74243;SDS011;62600;55.732;37.662;2022-10-22T02:21:25;6.28;;;4.13;;
74243;SDS011;62600;55.732;37.662;2022-10-22T02:22:58;6.45;;;4.22;;
74243;SDS011;62600;55.732;37.662;2022-10-22T02:24:29;7.07;;;4.15;;
74243;SDS011;62600;55.732;37.662;2022-10-22T02:28:00;8.85;;;4.70;;
74243;SDS011;62600;55.732;37.662;2022-10-22T02:29:42;7.47;;;4.47;;
74243;SDS011;62600;55.732;37.662;2022-10-22T02:34:26;7.20;;;4.32;;
74243;SDS011;62600;55.732;37.662;2022-10-22T02:36:00;7.38;;;4.90;;
74243;SDS011;62600;55.732;37.662;2022-10-22T02:37:32;8.68;;;4.95;;
74243;SDS011;62600;55.732;37.662;2022-10-22T02:39:03;7.22;;;4.93;;
74243;SDS011;62600;55.732;37.662;2022-10-22T02:40:35;8.77;;;5.38;;
74243;SDS011;62600;55.732;37.662;2022-10-22T02:42:07;8.38;;;4.97;;
74243;SDS011;62600;55.732;37.662;2022-10-22T02:43:41;7.30;;;4.50;;
74243;SDS011;62600;55.732;37.662;2022-10-22T02:45:13;7.68;;;5.38;;
74243;SDS011;62600;55.732;37.662;2022-10-22T02:46:44;11.30;;;5.68;;
74243;SDS011;62600;55.732;37.662;2022-10-22T02:48:15;8.25;;;4.55;;
74243;SDS011;62600;55.732;37.662;2022-10-22T02:49:45;10.23;;;5.68;;
74243;SDS011;62600;55.732;37.662;2022-10-22T02:51:16;7.85;;;4.65;;
74243;SDS011;62600;55.732;37.662;2022-10-22T02:52:46;7.50;;;5.25;;
74243;SDS011;62600;55.732;37.662;2022-10-22T02:54:17;9.13;;;5.43;;
74243;SDS011;62600;55.732;37.662;2022-10-22T02:55:47;9.50;;;5.20;;
74243;SDS011;62600;55.732;37.662;2022-10-22T02:57:18;8.85;;;5.38;;
74243;SDS011;62600;55.732;37.662;2022-10-22T02:58:48;9.85;;;5.60;;
74243;SDS011;62600;55.732;37.662;2022-10-22T03:00:19;7.75;;;5.10;;
74243;SDS011;62600;55.732;37.662;2022-10-22T03:01:51;13.45;;;5.63;;
74243;SDS011;62600;55.732;37.662;2022-10-22T03:03:21;10.18;;;5.43;;
74243;SDS011;62600;55.732;37.662;2022-10-22T03:04:52;7.30;;;5.15;;
74243;SDS011;62600;55.732;37.662;2022-10-22T03:06:22;6.30;;;4.82;;
74243;SDS011;62600;55.732;37.662;2022-10-22T03:07:52;7.32;;;5.10;;
74243;SDS011;62600;55.732;37.662;2022-10-22T03:09:23;7.57;;;4.90;;
74243;SDS011;62600;55.732;37.662;2022-10-22T03:10:53;7.63;;;4.60;;
74243;SDS011;62600;55.732;37.662;2022-10-22T03:12:24;10.73;;;5.13;;
74243;SDS011;62600;55.732;37.662;2022-10-22T03:13:55;8.23;;;5.15;;
74243;SDS011;62600;55.732;37.662;2022-10-22T03:15:25;8.15;;;4.63;;
74243;SDS011;62600;55.732;37.662;2022-10-22T03:16:55;9.00;;;5.13;;
74243;SDS011;62600;55.732;37.662;2022-10-22T03:18:26;9.35;;;5.10;;
74243;SDS011;62600;55.732;37.662;2022-10-22T03:19:57;7.88;;;4.97;;
74243;SDS011;62600;55.732;37.662;2022-10-22T03:21:35;8.73;;;4.88;;
74243;SDS011;62600;55.732;37.662;2022-10-22T03:23:11;8.13;;;4.85;;
74243;SDS011;62600;55.732;37.662;2022-10-22T03:24:47;9.02;;;5.53;;
74243;SDS011;62600;55.732;37.662;2022-10-22T03:26:20;6.95;;;4.55;;
74243;SDS011;62600;55.732;37.662;2022-10-22T03:27:51;8.43;;;4.85;;
74243;SDS011;62600;55.732;37.662;2022-10-22T03:29:25;8.35;;;5.10;;
74243;SDS011;62600;55.732;37.662;2022-10-22T03:30:56;5.78;;;3.72;;
74243;SDS011;62600;55.732;37.662;2022-10-22T03:32:27;7.43;;;4.78;;
74243;SDS011;62600;55.732;37.662;2022-10-22T03:33:57;7.43;;;4.50;;
74243;SDS011;62600;55.732;37.662;2022-10-22T03:35:28;7.75;;;5.25;;
74243;SDS011;62600;55.732;37.662;2022-10-22T03:36:59;7.80;;;5.20;;
74243;SDS011;62600;55.732;37.662;2022-10-22T03:38:30;8.30;;;5.15;;
74243;SDS011;62600;55.732;37.662;2022-10-22T03:40:03;9.98;;;5.38;;
74243;SDS011;62600;55.732;37.662;2022-10-22T03:41:36;7.47;;;5.07;;
74243;SDS011;62600;55.732;37.662;2022-10-22T03:43:06;8.15;;;5.32;;
74243;SDS011;62600;55.732;37.662;2022-10-22T03:44:37;7.47;;;4.88;;
74243;SDS011;62600;55.732;37.662;2022-10-22T03:46:09;8.00;;;5.00;;
74243;SDS011;62600;55.732;37.662;2022-10-22T03:47:39;8.00;;;5.20;;
74243;SDS011;62600;55.732;37.662;2022-10-22T03:49:10;8.55;;;5.75;;
74243;SDS011;62600;55.732;37.662;2022-10-22T03:50:40;8.23;;;5.60;;
74243;SDS011;62600;55.732;37.662;2022-10-22T03:52:12;11.10;;;5.10;;
74243;SDS011;62600;55.732;37.662;2022-10-22T03:53:43;7.72;;;5.05;;
74243;SDS011;62600;55.732;37.662;2022-10-22T03:55:13;7.22;;;5.00;;
74243;SDS011;62600;55.732;37.662;2022-10-22T03:56:44;8.07;;;5.05;;
74243;SDS011;62600;55.732;37.662;2022-10-22T03:58:14;6.72;;;4.60;;
74243;SDS011;62600;55.732;37.662;2022-10-22T03:59:45;7.03;;;4.43;;
74243;SDS011;62600;55.732;37.662;2022-10-22T04:01:16;7.78;;;4.90;;
74243;SDS011;62600;55.732;37.662;2022-10-22T04:02:46;8.30;;;4.72;;
74243;SDS011;62600;55.732;37.662;2022-10-22T04:04:17;7.50;;;4.70;;
74243;SDS011;62600;55.732;37.662;2022-10-22T04:05:47;6.85;;;4.40;;
74243;SDS011;62600;55.732;37.662;2022-10-22T04:07:17;6.70;;;4.22;;
74243;SDS011;62600;55.732;37.662;2022-10-22T04:08:48;8.23;;;4.50;;
74243;SDS011;62600;55.732;37.662;2022-10-22T04:10:18;9.77;;;4.75;;
74243;SDS011;62600;55.732;37.662;2022-10-22T04:11:49;8.80;;;4.90;;
74243;SDS011;62600;55.732;37.662;2022-10-22T04:13:20;7.55;;;4.63;;
74243;SDS011;62600;55.732;37.662;2022-10-22T04:14:50;6.32;;;4.60;;
74243;SDS011;62600;55.732;37.662;2022-10-22T04:16:21;6.35;;;4.18;;
74243;SDS011;62600;55.732;37.662;2022-10-22T04:17:52;6.22;;;4.50;;
74243;SDS011;62600;55.732;37.662;2022-10-22T04:19:23;6.80;;;4.10;;
74243;SDS011;62600;55.732;37.662;2022-10-22T04:20:54;7.50;;;4.65;;
74243;SDS011;62600;55.732;37.662;2022-10-22T04:22:24;7.07;;;4.70;;
74243;SDS011;62600;55.732;37.662;2022-10-22T04:23:55;7.07;;;4.22;;
74243;SDS011;62600;55.732;37.662;2022-10-22T04:25:25;6.75;;;3.95;;
74243;SDS011;62600;55.732;37.662;2022-10-22T04:26:56;7.68;;;4.55;;
74243;SDS011;62600;55.732;37.662;2022-10-22T04:28:26;6.70;;;3.92;;
74243;SDS011;62600;55.732;37.662;2022-10-22T04:29:57;8.85;;;4.75;;
74243;SDS011;62600;55.732;37.662;2022-10-22T04:31:27;6.40;;;4.22;;
74243;SDS011;62600;55.732;37.662;2022-10-22T04:32:58;6.43;;;4.05;;
74243;SDS011;62600;55.732;37.662;2022-10-22T04:34:28;6.57;;;4.50;;
74243;SDS011;62600;55.732;37.662;2022-10-22T04:35:59;6.82;;;4.55;;
74243;SDS011;62600;55.732;37.662;2022-10-22T04:37:29;7.60;;;4.43;;
74243;SDS011;62600;55.732;37.662;2022-10-22T04:39:02;9.10;;;4.95;;
74243;SDS011;62600;55.732;37.662;2022-10-22T04:40:33;6.90;;;4.47;;
74243;SDS011;62600;55.732;37.662;2022-10-22T04:42:03;9.13;;;4.55;;
74243;SDS011;62600;55.732;37.662;2022-10-22T04:43:34;6.82;;;4.40;;
74243;SDS011;62600;55.732;37.662;2022-10-22T04:45:04;7.30;;;4.60;;
74243;SDS011;62600;55.732;37.662;2022-10-22T04:46:35;7.32;;;5.13;;
74243;SDS011;62600;55.732;37.662;2022-10-22T04:48:08;7.28;;;4.95;;
74243;SDS011;62600;55.732;37.662;2022-10-22T04:49:39;7.80;;;5.07;;
74243;SDS011;62600;55.732;37.662;2022-10-22T04:51:11;6.80;;;4.72;;
74243;SDS011;62600;55.732;37.662;2022-10-22T04:52:43;6.68;;;4.88;;
74243;SDS011;62600;55.732;37.662;2022-10-22T04:54:13;10.77;;;5.57;;
74243;SDS011;62600;55.732;37.662;2022-10-22T04:55:44;7.80;;;4.70;;
74243;SDS011;62600;55.732;37.662;2022-10-22T04:57:14;7.65;;;4.57;;
74243;SDS011;62600;55.732;37.662;2022-10-22T04:58:45;6.15;;;4.30;;
74243;SDS011;62600;55.732;37.662;2022-10-22T05:00:17;7.45;;;4.40;;
74243;SDS011;62600;55.732;37.662;2022-10-22T05:01:48;7.68;;;4.60;;
74243;SDS011;62600;55.732;37.662;2022-10-22T05:03:18;6.72;;;4.47;;
74243;SDS011;62600;55.732;37.662;2022-10-22T05:04:49;6.45;;;4.43;;
74243;SDS011;62600;55.732;37.662;2022-10-22T05:06:20;9.15;;;5.25;;
74243;SDS011;62600;55.732;37.662;2022-10-22T05:07:51;9.90;;;5.43;;
74243;SDS011;62600;55.732;37.662;2022-10-22T05:09:22;7.72;;;5.15;;
74243;SDS011;62600;55.732;37.662;2022-10-22T05:10:52;8.90;;;4.85;;
74243;SDS011;62600;55.732;37.662;2022-10-22T05:12:23;7.43;;;4.70;;
74243;SDS011;62600;55.732;37.662;2022-10-22T05:13:57;7.80;;;5.30;;
74243;SDS011;62600;55.732;37.662;2022-10-22T05:15:29;8.13;;;4.93;;
74243;SDS011;62600;55.732;37.662;2022-10-22T05:16:59;8.07;;;4.95;;
74243;SDS011;62600;55.732;37.662;2022-10-22T05:18:30;8.73;;;5.20;;
74243;SDS011;62600;55.732;37.662;2022-10-22T05:20:03;7.45;;;5.32;;
74243;SDS011;62600;55.732;37.662;2022-10-22T05:21:34;7.63;;;5.43;;
74243;SDS011;62600;55.732;37.662;2022-10-22T05:23:06;9.98;;;5.88;;
74243;SDS011;62600;55.732;37.662;2022-10-22T05:24:37;10.98;;;5.85;;
74243;SDS011;62600;55.732;37.662;2022-10-22T05:26:08;9.73;;;6.00;;
74243;SDS011;62600;55.732;37.662;2022-10-22T05:27:39;9.38;;;6.45;;
74243;SDS011;62600;55.732;37.662;2022-10-22T05:29:10;12.50;;;7.07;;
74243;SDS011;62600;55.732;37.662;2022-10-22T05:30:40;8.90;;;6.50;;
74243;SDS011;62600;55.732;37.662;2022-10-22T05:32:11;12.80;;;8.13;;
74243;SDS011;62600;55.732;37.662;2022-10-22T05:33:41;8.65;;;6.15;;
74243;SDS011;62600;55.732;37.662;2022-10-22T05:35:12;9.32;;;6.20;;
74243;SDS011;62600;55.732;37.662;2022-10-22T05:36:43;9.70;;;6.63;;
74243;SDS011;62600;55.732;37.662;2022-10-22T05:38:14;8.57;;;6.18;;
74243;SDS011;62600;55.732;37.662;2022-10-22T05:39:45;13.15;;;6.78;;
74243;SDS011;62600;55.732;37.662;2022-10-22T05:41:20;10.48;;;6.57;;
74243;SDS011;62600;55.732;37.662;2022-10-22T05:42:52;12.02;;;7.05;;
74243;SDS011;62600;55.732;37.662;2022-10-22T05:44:22;10.25;;;6.97;;
74243;SDS011;62600;55.732;37.662;2022-10-22T05:45:53;11.45;;;7.07;;
74243;SDS011;62600;55.732;37.662;2022-10-22T05:47:24;12.27;;;7.15;;
74243;SDS011;62600;55.732;37.662;2022-10-22T05:48:56;10.75;;;7.55;;
74243;SDS011;62600;55.732;37.662;2022-10-22T05:50:30;10.85;;;7.28;;
74243;SDS011;62600;55.732;37.662;2022-10-22T05:52:01;11.50;;;6.63;;
74243;SDS011;62600;55.732;37.662;2022-10-22T05:53:32;12.38;;;7.32;;
74243;SDS011;62600;55.732;37.662;2022-10-22T05:55:03;11.23;;;6.60;;
74243;SDS011;62600;55.732;37.662;2022-10-22T05:56:34;13.00;;;6.65;;
74243;SDS011;62600;55.732;37.662;2022-10-22T05:58:06;13.50;;;7.20;;
74243;SDS011;62600;55.732;37.662;2022-10-22T05:59:36;10.73;;;6.75;;
74243;SDS011;62600;55.732;37.662;2022-10-22T06:01:09;10.85;;;7.07;;
74243;SDS011;62600;55.732;37.662;2022-10-22T06:02:48;17.38;;;6.93;;
74243;SDS011;62600;55.732;37.662;2022-10-22T06:04:21;11.43;;;6.47;;
74243;SDS011;62600;55.732;37.662;2022-10-22T06:05:52;16.15;;;6.45;;
74243;SDS011;62600;55.732;37.662;2022-10-22T06:07:23;11.27;;;6.00;;
74243;SDS011;62600;55.732;37.662;2022-10-22T06:08:54;8.90;;;5.78;;
74243;SDS011;62600;55.732;37.662;2022-10-22T06:10:25;12.45;;;5.82;;
74243;SDS011;62600;55.732;37.662;2022-10-22T06:11:56;11.23;;;6.07;;
74243;SDS011;62600;55.732;37.662;2022-10-22T06:13:27;17.92;;;6.63;;
74243;SDS011;62600;55.732;37.662;2022-10-22T06:14:58;16.63;;;6.95;;
74243;SDS011;62600;55.732;37.662;2022-10-22T06:16:29;13.38;;;6.50;;
74243;SDS011;62600;55.732;37.662;2022-10-22T06:18:00;17.25;;;7.43;;
74243;SDS011;62600;55.732;37.662;2022-10-22T06:19:31;11.13;;;5.95;;
74243;SDS011;62600;55.732;37.662;2022-10-22T06:21:08;15.60;;;6.97;;
74243;SDS011;62600;55.732;37.662;2022-10-22T06:22:40;19.63;;;6.95;;
74243;SDS011;62600;55.732;37.662;2022-10-22T06:24:11;11.18;;;5.70;;
74243;SDS011;62600;55.732;37.662;2022-10-22T06:25:41;11.25;;;6.10;;
74243;SDS011;62600;55.732;37.662;2022-10-22T06:27:12;11.90;;;5.75;;
74243;SDS011;62600;55.732;37.662;2022-10-22T06:28:43;10.85;;;5.90;;
74243;SDS011;62600;55.732;37.662;2022-10-22T06:30:13;16.27;;;6.68;;
74243;SDS011;62600;55.732;37.662;2022-10-22T06:31:44;12.40;;;6.90;;
74243;SDS011;62600;55.732;37.662;2022-10-22T06:33:14;12.68;;;5.78;;
74243;SDS011;62600;55.732;37.662;2022-10-22T06:34:45;11.55;;;5.97;;
74243;SDS011;62600;55.732;37.662;2022-10-22T06:36:18;11.15;;;6.53;;
74243;SDS011;62600;55.732;37.662;2022-10-22T06:37:50;10.10;;;6.35;;
74243;SDS011;62600;55.732;37.662;2022-10-22T06:39:20;8.77;;;4.97;;
74243;SDS011;62600;55.732;37.662;2022-10-22T06:40:50;12.35;;;6.00;;
74243;SDS011;62600;55.732;37.662;2022-10-22T06:42:21;11.30;;;5.93;;
74243;SDS011;62600;55.732;37.662;2022-10-22T06:43:51;8.63;;;5.72;;
74243;SDS011;62600;55.732;37.662;2022-10-22T06:45:22;8.95;;;5.78;;
74243;SDS011;62600;55.732;37.662;2022-10-22T06:46:53;12.80;;;6.05;;
74243;SDS011;62600;55.732;37.662;2022-10-22T06:48:23;9.63;;;5.50;;
74243;SDS011;62600;55.732;37.662;2022-10-22T06:49:53;10.77;;;5.60;;
74243;SDS011;62600;55.732;37.662;2022-10-22T06:51:27;9.77;;;4.75;;
74243;SDS011;62600;55.732;37.662;2022-10-22T06:52:58;8.60;;;5.50;;
74243;SDS011;62600;55.732;37.662;2022-10-22T06:54:28;9.05;;;5.45;;
74243;SDS011;62600;55.732;37.662;2022-10-22T06:56:03;6.47;;;4.50;;
74243;SDS011;62600;55.732;37.662;2022-10-22T06:57:37;7.50;;;4.75;;
74243;SDS011;62600;55.732;37.662;2022-10-22T06:59:08;8.32;;;4.40;;
74243;SDS011;62600;55.732;37.662;2022-10-22T07:00:39;8.68;;;4.82;;
74243;SDS011;62600;55.732;37.662;2022-10-22T07:02:09;8.10;;;5.22;;
74243;SDS011;62600;55.732;37.662;2022-10-22T07:03:40;10.25;;;4.70;;
74243;SDS011;62600;55.732;37.662;2022-10-22T07:05:10;7.50;;;4.10;;
74243;SDS011;62600;55.732;37.662;2022-10-22T07:06:41;8.68;;;4.72;;
74243;SDS011;62600;55.732;37.662;2022-10-22T07:08:14;8.43;;;3.92;;
74243;SDS011;62600;55.732;37.662;2022-10-22T07:09:44;8.02;;;4.00;;
74243;SDS011;62600;55.732;37.662;2022-10-22T07:11:19;6.53;;;3.50;;
74243;SDS011;62600;55.732;37.662;2022-10-22T07:12:51;5.35;;;3.22;;
74243;SDS011;62600;55.732;37.662;2022-10-22T07:14:22;5.75;;;3.60;;
74243;SDS011;62600;55.732;37.662;2022-10-22T07:15:52;6.40;;;3.30;;
74243;SDS011;62600;55.732;37.662;2022-10-22T07:17:24;4.47;;;2.90;;
74243;SDS011;62600;55.732;37.662;2022-10-22T07:18:54;5.55;;;3.03;;
74243;SDS011;62600;55.732;37.662;2022-10-22T07:20:25;7.13;;;3.25;;
74243;SDS011;62600;55.732;37.662;2022-10-22T07:21:55;8.13;;;3.60;;
74243;SDS011;62600;55.732;37.662;2022-10-22T07:23:26;8.00;;;2.88;;
74243;SDS011;62600;55.732;37.662;2022-10-22T07:24:58;4.30;;;3.03;;
74243;SDS011;62600;55.732;37.662;2022-10-22T07:26:28;3.75;;;2.80;;
74243;SDS011;62600;55.732;37.662;2022-10-22T07:28:02;4.78;;;2.88;;
74243;SDS011;62600;55.732;37.662;2022-10-22T07:29:32;4.57;;;2.67;;
74243;SDS011;62600;55.732;37.662;2022-10-22T07:31:03;3.83;;;2.80;;
74243;SDS011;62600;55.732;37.662;2022-10-22T07:32:35;4.93;;;3.15;;
74243;SDS011;62600;55.732;37.662;2022-10-22T07:34:06;4.75;;;2.70;;
74243;SDS011;62600;55.732;37.662;2022-10-22T07:35:37;4.53;;;3.13;;
74243;SDS011;62600;55.732;37.662;2022-10-22T07:37:08;5.30;;;2.83;;
74243;SDS011;62600;55.732;37.662;2022-10-22T07:38:39;5.45;;;3.38;;
74243;SDS011;62600;55.732;37.662;2022-10-22T07:40:09;3.75;;;2.33;;
74243;SDS011;62600;55.732;37.662;2022-10-22T07:41:43;5.22;;;2.42;;
74243;SDS011;62600;55.732;37.662;2022-10-22T07:43:14;6.63;;;3.08;;
74243;SDS011;62600;55.732;37.662;2022-10-22T07:44:44;5.65;;;2.60;;
74243;SDS011;62600;55.732;37.662;2022-10-22T07:46:15;6.38;;;2.92;;
74243;SDS011;62600;55.732;37.662;2022-10-22T07:47:46;3.92;;;2.65;;
74243;SDS011;62600;55.732;37.662;2022-10-22T07:49:17;3.47;;;2.80;;
74243;SDS011;62600;55.732;37.662;2022-10-22T07:50:48;5.55;;;2.67;;
74243;SDS011;62600;55.732;37.662;2022-10-22T07:52:21;5.55;;;2.72;;
74243;SDS011;62600;55.732;37.662;2022-10-22T07:53:52;3.65;;;2.38;;
74243;SDS011;62600;55.732;37.662;2022-10-22T07:55:22;3.30;;;2.25;;
74243;SDS011;62600;55.732;37.662;2022-10-22T07:56:53;6.45;;;2.90;;
74243;SDS011;62600;55.732;37.662;2022-10-22T07:58:23;4.13;;;2.80;;
74243;SDS011;62600;55.732;37.662;2022-10-22T07:59:54;6.40;;;3.30;;
74243;SDS011;62600;55.732;37.662;2022-10-22T08:01:27;5.13;;;3.47;;
74243;SDS011;62600;55.732;37.662;2022-10-22T08:02:57;2.80;;;2.15;;
74243;SDS011;62600;55.732;37.662;2022-10-22T08:04:27;7.93;;;2.40;;
74243;SDS011;62600;55.732;37.662;2022-10-22T08:05:58;7.00;;;2.88;;
74243;SDS011;62600;55.732;37.662;2022-10-22T08:07:30;4.05;;;3.08;;
74243;SDS011;62600;55.732;37.662;2022-10-22T08:09:00;2.83;;;2.35;;
74243;SDS011;62600;55.732;37.662;2022-10-22T08:10:31;7.22;;;3.38;;
74243;SDS011;62600;55.732;37.662;2022-10-22T08:12:02;8.00;;;3.13;;
74243;SDS011;62600;55.732;37.662;2022-10-22T08:13:33;8.80;;;2.35;;
74243;SDS011;62600;55.732;37.662;2022-10-22T08:15:03;4.93;;;2.60;;
74243;SDS011;62600;55.732;37.662;2022-10-22T08:16:35;6.10;;;2.97;;
74243;SDS011;62600;55.732;37.662;2022-10-22T08:18:05;3.25;;;1.70;;
74243;SDS011;62600;55.732;37.662;2022-10-22T08:19:36;3.50;;;1.98;;
74243;SDS011;62600;55.732;37.662;2022-10-22T08:21:06;3.58;;;1.63;;
74243;SDS011;62600;55.732;37.662;2022-10-22T08:22:37;2.42;;;1.75;;
74243;SDS011;62600;55.732;37.662;2022-10-22T08:24:07;3.05;;;1.95;;
74243;SDS011;62600;55.732;37.662;2022-10-22T08:25:38;5.32;;;2.08;;
74243;SDS011;62600;55.732;37.662;2022-10-22T08:27:08;3.40;;;2.05;;
74243;SDS011;62600;55.732;37.662;2022-10-22T08:28:39;3.53;;;1.65;;
74243;SDS011;62600;55.732;37.662;2022-10-22T08:30:10;3.40;;;2.13;;
74243;SDS011;62600;55.732;37.662;2022-10-22T08:31:41;4.47;;;2.40;;
74243;SDS011;62600;55.732;37.662;2022-10-22T08:33:11;2.90;;;2.22;;
74243;SDS011;62600;55.732;37.662;2022-10-22T08:34:42;3.70;;;2.47;;
74243;SDS011;62600;55.732;37.662;2022-10-22T08:36:12;5.30;;;2.53;;
74243;SDS011;62600;55.732;37.662;2022-10-22T08:37:43;5.97;;;2.90;;
74243;SDS011;62600;55.732;37.662;2022-10-22T08:39:13;3.53;;;2.33;;
74243;SDS011;62600;55.732;37.662;2022-10-22T08:40:45;4.20;;;2.55;;
74243;SDS011;62600;55.732;37.662;2022-10-22T08:42:29;5.13;;;2.70;;
74243;SDS011;62600;55.732;37.662;2022-10-22T08:44:11;3.92;;;3.20;;
74243;SDS011;62600;55.732;37.662;2022-10-22T08:49:34;6.25;;;3.45;;
74243;SDS011;62600;55.732;37.662;2022-10-22T08:51:10;6.43;;;3.28;;
74243;SDS011;62600;55.732;37.662;2022-10-22T08:52:45;4.75;;;3.17;;
74243;SDS011;62600;55.732;37.662;2022-10-22T08:56:13;4.47;;;3.10;;
74243;SDS011;62600;55.732;37.662;2022-10-22T08:57:51;5.45;;;2.58;;
74243;SDS011;62600;55.732;37.662;2022-10-22T08:59:38;4.93;;;2.65;;
74243;SDS011;62600;55.732;37.662;2022-10-22T09:01:16;6.32;;;3.03;;
74243;SDS011;62600;55.732;37.662;2022-10-22T09:04:40;5.05;;;2.85;;
74243;SDS011;62600;55.732;37.662;2022-10-22T09:06:21;4.80;;;3.13;;
74243;SDS011;62600;55.732;37.662;2022-10-22T09:07:54;6.70;;;4.07;;
74243;SDS011;62600;55.732;37.662;2022-10-22T09:09:26;7.57;;;3.05;;
74243;SDS011;62600;55.732;37.662;2022-10-22T09:11:24;4.93;;;3.17;;
74243;SDS011;62600;55.732;37.662;2022-10-22T09:13:00;6.18;;;3.63;;
74243;SDS011;62600;55.732;37.662;2022-10-22T09:14:31;4.55;;;3.53;;
74243;SDS011;62600;55.732;37.662;2022-10-22T09:21:47;5.78;;;3.30;;
74243;SDS011;62600;55.732;37.662;2022-10-22T09:25:37;6.88;;;3.20;;
74243;SDS011;62600;55.732;37.662;2022-10-22T09:27:16;12.48;;;3.70;;
74243;SDS011;62600;55.732;37.662;2022-10-22T09:28:49;7.35;;;3.67;;
74243;SDS011;62600;55.732;37.662;2022-10-22T09:30:22;7.32;;;3.25;;
74243;SDS011;62600;55.732;37.662;2022-10-22T09:31:55;8.60;;;3.53;;
74243;SDS011;62600;55.732;37.662;2022-10-22T09:33:27;5.63;;;4.22;;
74243;SDS011;62600;55.732;37.662;2022-10-22T09:34:59;5.43;;;3.95;;
74243;SDS011;62600;55.732;37.662;2022-10-22T09:36:30;5.70;;;3.38;;
74243;SDS011;62600;55.732;37.662;2022-10-22T09:38:05;6.10;;;3.65;;
74243;SDS011;62600;55.732;37.662;2022-10-22T09:39:44;6.47;;;3.63;;
74243;SDS011;62600;55.732;37.662;2022-10-22T09:41:22;6.10;;;3.38;;
74243;SDS011;62600;55.732;37.662;2022-10-22T09:42:55;6.82;;;3.70;;
74243;SDS011;62600;55.732;37.662;2022-10-22T09:44:25;5.95;;;3.30;;
74243;SDS011;62600;55.732;37.662;2022-10-22T09:46:00;5.50;;;3.25;;
74243;SDS011;62600;55.732;37.662;2022-10-22T09:47:39;10.38;;;3.72;;
74243;SDS011;62600;55.732;37.662;2022-10-22T09:49:12;37.78;;;6.03;;
74243;SDS011;62600;55.732;37.662;2022-10-22T09:50:46;23.23;;;4.40;;
74243;SDS011;62600;55.732;37.662;2022-10-22T09:52:23;10.18;;;3.70;;